sensor_id;sensor_type;location;lat;lon;timestamp;P1;durP1;ratioP1;P2;durP2;ratioP2
75191;SDS011;63771;52.580;9.734;2023-04-03T00:00:12;2.07;;;1.23;;
75191;SDS011;63771;52.580;9.734;2023-04-03T00:02:37;1.73;;;1.63;;
75191;SDS011;63771;52.580;9.734;2023-04-03T00:05:03;1.43;;;1.33;;
75191;SDS011;63771;52.580;9.734;2023-04-03T00:07:29;1.15;;;1.15;;
75191;SDS011;63771;52.580;9.734;2023-04-03T00:09:54;7.93;;;1.70;;
75191;SDS011;63771;52.580;9.734;2023-04-03T00:12:20;1.85;;;1.73;;
75191;SDS011;63771;52.580;9.734;2023-04-03T00:14:45;3.63;;;1.30;;
75191;SDS011;63771;52.580;9.734;2023-04-03T00:17:11;1.60;;;1.23;;
75191;SDS011;63771;52.580;9.734;2023-04-03T00:19:36;2.97;;;1.43;;
75191;SDS011;63771;52.580;9.734;2023-04-03T00:22:01;2.43;;;1.30;;
75191;SDS011;63771;52.580;9.734;2023-04-03T00:24:27;1.37;;;1.27;;
75191;SDS011;63771;52.580;9.734;2023-04-03T00:26:52;2.57;;;1.40;;
75191;SDS011;63771;52.580;9.734;2023-04-03T00:29:17;2.57;;;1.30;;
75191;SDS011;63771;52.580;9.734;2023-04-03T00:31:42;4.03;;;1.70;;
75191;SDS011;63771;52.580;9.734;2023-04-03T00:34:08;3.00;;;1.73;;
75191;SDS011;63771;52.580;9.734;2023-04-03T00:36:33;3.57;;;1.40;;
75191;SDS011;63771;52.580;9.734;2023-04-03T00:38:58;0.90;;;0.90;;
75191;SDS011;63771;52.580;9.734;2023-04-03T00:41:24;3.27;;;1.17;;
75191;SDS011;63771;52.580;9.734;2023-04-03T00:43:50;3.50;;;1.58;;
75191;SDS011;63771;52.580;9.734;2023-04-03T00:46:16;1.20;;;1.20;;
75191;SDS011;63771;52.580;9.734;2023-04-03T00:48:42;3.67;;;1.60;;
75191;SDS011;63771;52.580;9.734;2023-04-03T00:51:11;2.53;;;1.58;;
75191;SDS011;63771;52.580;9.734;2023-04-03T00:53:41;1.48;;;1.20;;
75191;SDS011;63771;52.580;9.734;2023-04-03T00:56:10;5.68;;;1.92;;
75191;SDS011;63771;52.580;9.734;2023-04-03T00:59:00;2.55;;;1.33;;
75191;SDS011;63771;52.580;9.734;2023-04-03T01:01:35;2.85;;;1.80;;
75191;SDS011;63771;52.580;9.734;2023-04-03T01:04:02;1.27;;;1.17;;
75191;SDS011;63771;52.580;9.734;2023-04-03T01:06:30;1.88;;;1.73;;
75191;SDS011;63771;52.580;9.734;2023-04-03T01:09:01;2.65;;;1.50;;
75191;SDS011;63771;52.580;9.734;2023-04-03T01:11:27;2.00;;;1.80;;
75191;SDS011;63771;52.580;9.734;2023-04-03T01:13:53;3.17;;;1.88;;
75191;SDS011;63771;52.580;9.734;2023-04-03T01:16:18;1.42;;;1.35;;
75191;SDS011;63771;52.580;9.734;2023-04-03T01:18:44;1.45;;;1.38;;
75191;SDS011;63771;52.580;9.734;2023-04-03T01:24:21;1.38;;;1.27;;
75191;SDS011;63771;52.580;9.734;2023-04-03T01:27:07;2.58;;;1.48;;
75191;SDS011;63771;52.580;9.734;2023-04-03T01:29:35;2.28;;;1.85;;
75191;SDS011;63771;52.580;9.734;2023-04-03T01:32:02;1.73;;;1.65;;
75191;SDS011;63771;52.580;9.734;2023-04-03T01:34:29;4.00;;;1.85;;
75191;SDS011;63771;52.580;9.734;2023-04-03T01:37:00;2.22;;;2.05;;
75191;SDS011;63771;52.580;9.734;2023-04-03T01:39:25;2.20;;;1.77;;
75191;SDS011;63771;52.580;9.734;2023-04-03T01:41:51;2.58;;;2.17;;
75191;SDS011;63771;52.580;9.734;2023-04-03T01:44:16;1.90;;;1.80;;
75191;SDS011;63771;52.580;9.734;2023-04-03T01:46:42;1.80;;;1.60;;
75191;SDS011;63771;52.580;9.734;2023-04-03T01:49:07;1.73;;;1.50;;
75191;SDS011;63771;52.580;9.734;2023-04-03T01:51:33;1.98;;;1.83;;
75191;SDS011;63771;52.580;9.734;2023-04-03T01:53:58;2.00;;;1.60;;
75191;SDS011;63771;52.580;9.734;2023-04-03T01:56:24;1.67;;;1.57;;
75191;SDS011;63771;52.580;9.734;2023-04-03T01:58:50;2.40;;;1.88;;
75191;SDS011;63771;52.580;9.734;2023-04-03T02:01:15;4.47;;;1.55;;
75191;SDS011;63771;52.580;9.734;2023-04-03T02:03:41;3.10;;;1.65;;
75191;SDS011;63771;52.580;9.734;2023-04-03T02:06:06;2.13;;;1.40;;
75191;SDS011;63771;52.580;9.734;2023-04-03T02:08:31;1.60;;;1.33;;
75191;SDS011;63771;52.580;9.734;2023-04-03T02:10:57;2.53;;;2.40;;
75191;SDS011;63771;52.580;9.734;2023-04-03T02:13:22;3.93;;;2.10;;
75191;SDS011;63771;52.580;9.734;2023-04-03T02:15:47;2.33;;;2.13;;
75191;SDS011;63771;52.580;9.734;2023-04-03T02:18:13;3.33;;;2.47;;
75191;SDS011;63771;52.580;9.734;2023-04-03T02:20:39;3.25;;;1.85;;
75191;SDS011;63771;52.580;9.734;2023-04-03T02:23:04;5.00;;;1.80;;
75191;SDS011;63771;52.580;9.734;2023-04-03T02:25:30;1.75;;;1.65;;
75191;SDS011;63771;52.580;9.734;2023-04-03T02:27:56;2.03;;;1.85;;
75191;SDS011;63771;52.580;9.734;2023-04-03T02:30:21;2.75;;;1.85;;
75191;SDS011;63771;52.580;9.734;2023-04-03T02:32:47;5.07;;;2.03;;
75191;SDS011;63771;52.580;9.734;2023-04-03T02:35:12;3.30;;;1.70;;
75191;SDS011;63771;52.580;9.734;2023-04-03T02:37:37;2.40;;;1.40;;
75191;SDS011;63771;52.580;9.734;2023-04-03T02:40:03;3.13;;;1.90;;
75191;SDS011;63771;52.580;9.734;2023-04-03T02:42:30;3.00;;;1.60;;
75191;SDS011;63771;52.580;9.734;2023-04-03T02:44:55;1.88;;;1.52;;
75191;SDS011;63771;52.580;9.734;2023-04-03T02:47:21;1.97;;;1.33;;
75191;SDS011;63771;52.580;9.734;2023-04-03T02:49:46;1.45;;;1.33;;
75191;SDS011;63771;52.580;9.734;2023-04-03T02:52:12;2.50;;;1.63;;
75191;SDS011;63771;52.580;9.734;2023-04-03T02:54:38;1.63;;;1.52;;
75191;SDS011;63771;52.580;9.734;2023-04-03T02:57:03;2.45;;;2.22;;
75191;SDS011;63771;52.580;9.734;2023-04-03T02:59:29;1.70;;;1.60;;
75191;SDS011;63771;52.580;9.734;2023-04-03T03:01:54;2.37;;;1.60;;
75191;SDS011;63771;52.580;9.734;2023-04-03T03:04:20;1.63;;;1.52;;
75191;SDS011;63771;52.580;9.734;2023-04-03T03:06:46;2.85;;;1.63;;
75191;SDS011;63771;52.580;9.734;2023-04-03T03:09:11;2.08;;;1.52;;
75191;SDS011;63771;52.580;9.734;2023-04-03T03:11:38;4.68;;;1.42;;
75191;SDS011;63771;52.580;9.734;2023-04-03T03:14:04;1.98;;;1.73;;
75191;SDS011;63771;52.580;9.734;2023-04-03T03:16:29;5.07;;;2.20;;
75191;SDS011;63771;52.580;9.734;2023-04-03T03:18:55;2.00;;;1.58;;
75191;SDS011;63771;52.580;9.734;2023-04-03T03:21:20;2.63;;;2.13;;
75191;SDS011;63771;52.580;9.734;2023-04-03T03:23:46;7.27;;;1.93;;
75191;SDS011;63771;52.580;9.734;2023-04-03T03:26:11;3.30;;;1.70;;
75191;SDS011;63771;52.580;9.734;2023-04-03T03:28:37;3.43;;;1.50;;
75191;SDS011;63771;52.580;9.734;2023-04-03T03:31:04;2.05;;;1.50;;
75191;SDS011;63771;52.580;9.734;2023-04-03T03:33:30;1.30;;;1.27;;
75191;SDS011;63771;52.580;9.734;2023-04-03T03:35:56;5.00;;;1.90;;
75191;SDS011;63771;52.580;9.734;2023-04-03T03:38:22;4.13;;;1.33;;
75191;SDS011;63771;52.580;9.734;2023-04-03T03:40:48;2.10;;;1.55;;
75191;SDS011;63771;52.580;9.734;2023-04-03T03:43:15;2.03;;;1.65;;
75191;SDS011;63771;52.580;9.734;2023-04-03T03:45:40;4.65;;;1.60;;
75191;SDS011;63771;52.580;9.734;2023-04-03T03:48:06;2.25;;;1.63;;
75191;SDS011;63771;52.580;9.734;2023-04-03T03:50:31;2.22;;;1.58;;
75191;SDS011;63771;52.580;9.734;2023-04-03T03:52:57;3.50;;;1.90;;
75191;SDS011;63771;52.580;9.734;2023-04-03T03:55:22;2.42;;;1.70;;
75191;SDS011;63771;52.580;9.734;2023-04-03T03:57:47;1.73;;;1.63;;
75191;SDS011;63771;52.580;9.734;2023-04-03T04:00:13;5.43;;;2.17;;
75191;SDS011;63771;52.580;9.734;2023-04-03T04:02:38;6.45;;;2.38;;
75191;SDS011;63771;52.580;9.734;2023-04-03T04:05:04;2.50;;;1.15;;
75191;SDS011;63771;52.580;9.734;2023-04-03T04:07:30;2.75;;;1.85;;
75191;SDS011;63771;52.580;9.734;2023-04-03T04:09:55;5.60;;;1.70;;
75191;SDS011;63771;52.580;9.734;2023-04-03T04:12:20;7.82;;;3.05;;
75191;SDS011;63771;52.580;9.734;2023-04-03T04:14:46;2.67;;;2.05;;
75191;SDS011;63771;52.580;9.734;2023-04-03T04:17:12;2.50;;;1.70;;
75191;SDS011;63771;52.580;9.734;2023-04-03T04:19:38;2.75;;;1.88;;
75191;SDS011;63771;52.580;9.734;2023-04-03T04:22:03;2.20;;;1.90;;
75191;SDS011;63771;52.580;9.734;2023-04-03T04:24:28;2.10;;;1.47;;
75191;SDS011;63771;52.580;9.734;2023-04-03T04:26:54;2.50;;;2.20;;
75191;SDS011;63771;52.580;9.734;2023-04-03T04:29:19;2.40;;;2.25;;
75191;SDS011;63771;52.580;9.734;2023-04-03T04:31:44;6.33;;;2.47;;
75191;SDS011;63771;52.580;9.734;2023-04-03T04:34:10;2.40;;;2.20;;
75191;SDS011;63771;52.580;9.734;2023-04-03T04:36:35;4.28;;;1.65;;
75191;SDS011;63771;52.580;9.734;2023-04-03T04:39:00;4.63;;;1.83;;
75191;SDS011;63771;52.580;9.734;2023-04-03T04:41:26;2.27;;;2.10;;
75191;SDS011;63771;52.580;9.734;2023-04-03T04:43:52;4.82;;;2.50;;
75191;SDS011;63771;52.580;9.734;2023-04-03T04:46:17;1.90;;;1.80;;
75191;SDS011;63771;52.580;9.734;2023-04-03T04:48:43;7.93;;;2.38;;
75191;SDS011;63771;52.580;9.734;2023-04-03T04:51:09;2.22;;;2.03;;
75191;SDS011;63771;52.580;9.734;2023-04-03T04:53:35;3.85;;;1.60;;
75191;SDS011;63771;52.580;9.734;2023-04-03T04:56:00;4.03;;;2.13;;
75191;SDS011;63771;52.580;9.734;2023-04-03T04:58:26;2.13;;;1.80;;
75191;SDS011;63771;52.580;9.734;2023-04-03T05:01:01;2.87;;;2.60;;
75191;SDS011;63771;52.580;9.734;2023-04-03T05:03:31;3.00;;;2.72;;
75191;SDS011;63771;52.580;9.734;2023-04-03T05:05:57;2.83;;;2.10;;
75191;SDS011;63771;52.580;9.734;2023-04-03T05:08:23;2.50;;;2.05;;
75191;SDS011;63771;52.580;9.734;2023-04-03T05:10:49;2.70;;;2.00;;
75191;SDS011;63771;52.580;9.734;2023-04-03T05:13:15;8.55;;;2.22;;
75191;SDS011;63771;52.580;9.734;2023-04-03T05:15:40;4.35;;;1.90;;
75191;SDS011;63771;52.580;9.734;2023-04-03T05:18:06;6.45;;;2.70;;
75191;SDS011;63771;52.580;9.734;2023-04-03T05:20:32;3.72;;;3.25;;
75191;SDS011;63771;52.580;9.734;2023-04-03T05:22:58;6.88;;;3.28;;
75191;SDS011;63771;52.580;9.734;2023-04-03T05:25:23;5.43;;;3.00;;
75191;SDS011;63771;52.580;9.734;2023-04-03T05:27:49;2.30;;;2.10;;
75191;SDS011;63771;52.580;9.734;2023-04-03T05:30:15;9.70;;;2.90;;
75191;SDS011;63771;52.580;9.734;2023-04-03T05:32:41;4.60;;;2.30;;
75191;SDS011;63771;52.580;9.734;2023-04-03T05:35:07;5.03;;;2.47;;
75191;SDS011;63771;52.580;9.734;2023-04-03T05:37:33;4.30;;;1.77;;
75191;SDS011;63771;52.580;9.734;2023-04-03T05:39:59;2.25;;;1.60;;
75191;SDS011;63771;52.580;9.734;2023-04-03T05:42:24;4.03;;;1.85;;
75191;SDS011;63771;52.580;9.734;2023-04-03T05:44:50;1.77;;;1.40;;
75191;SDS011;63771;52.580;9.734;2023-04-03T05:47:15;2.33;;;1.35;;
75191;SDS011;63771;52.580;9.734;2023-04-03T05:49:41;3.25;;;1.90;;
75191;SDS011;63771;52.580;9.734;2023-04-03T05:52:26;4.07;;;1.50;;
75191;SDS011;63771;52.580;9.734;2023-04-03T05:54:54;1.75;;;1.65;;
75191;SDS011;63771;52.580;9.734;2023-04-03T05:57:19;4.35;;;1.55;;
75191;SDS011;63771;52.580;9.734;2023-04-03T05:59:45;4.00;;;1.77;;
75191;SDS011;63771;52.580;9.734;2023-04-03T06:02:15;3.25;;;1.70;;
75191;SDS011;63771;52.580;9.734;2023-04-03T06:04:42;1.63;;;1.52;;
75191;SDS011;63771;52.580;9.734;2023-04-03T06:07:11;3.72;;;1.70;;
75191;SDS011;63771;52.580;9.734;2023-04-03T06:09:42;2.28;;;1.25;;
75191;SDS011;63771;52.580;9.734;2023-04-03T06:12:08;2.78;;;1.63;;
75191;SDS011;63771;52.580;9.734;2023-04-03T06:14:34;2.97;;;1.50;;
75191;SDS011;63771;52.580;9.734;2023-04-03T06:17:00;3.80;;;2.42;;
75191;SDS011;63771;52.580;9.734;2023-04-03T06:19:26;5.32;;;2.17;;
75191;SDS011;63771;52.580;9.734;2023-04-03T06:21:52;1.52;;;1.42;;
75191;SDS011;63771;52.580;9.734;2023-04-03T06:24:17;2.90;;;1.70;;
75191;SDS011;63771;52.580;9.734;2023-04-03T06:26:43;4.90;;;2.72;;
75191;SDS011;63771;52.580;9.734;2023-04-03T06:29:09;3.72;;;1.70;;
75191;SDS011;63771;52.580;9.734;2023-04-03T06:31:34;2.58;;;1.77;;
75191;SDS011;63771;52.580;9.734;2023-04-03T06:34:01;1.70;;;1.40;;
75191;SDS011;63771;52.580;9.734;2023-04-03T06:36:27;5.05;;;1.85;;
75191;SDS011;63771;52.580;9.734;2023-04-03T06:38:53;3.90;;;1.80;;
75191;SDS011;63771;52.580;9.734;2023-04-03T06:41:19;3.38;;;1.67;;
75191;SDS011;63771;52.580;9.734;2023-04-03T06:43:46;5.00;;;2.00;;
75191;SDS011;63771;52.580;9.734;2023-04-03T06:46:19;2.83;;;1.88;;
75191;SDS011;63771;52.580;9.734;2023-04-03T06:48:46;4.30;;;2.15;;
75191;SDS011;63771;52.580;9.734;2023-04-03T06:51:21;2.05;;;1.85;;
75191;SDS011;63771;52.580;9.734;2023-04-03T06:53:48;3.30;;;1.50;;
75191;SDS011;63771;52.580;9.734;2023-04-03T06:56:14;3.67;;;1.63;;
75191;SDS011;63771;52.580;9.734;2023-04-03T06:58:40;4.28;;;1.50;;
75191;SDS011;63771;52.580;9.734;2023-04-03T07:01:06;1.90;;;1.80;;
75191;SDS011;63771;52.580;9.734;2023-04-03T07:03:34;3.33;;;1.90;;
75191;SDS011;63771;52.580;9.734;2023-04-03T07:06:00;3.30;;;1.77;;
75191;SDS011;63771;52.580;9.734;2023-04-03T07:08:26;3.50;;;1.92;;
75191;SDS011;63771;52.580;9.734;2023-04-03T07:10:51;6.00;;;2.00;;
75191;SDS011;63771;52.580;9.734;2023-04-03T07:13:16;3.47;;;1.85;;
75191;SDS011;63771;52.580;9.734;2023-04-03T07:15:42;2.13;;;2.03;;
75191;SDS011;63771;52.580;9.734;2023-04-03T07:18:07;1.60;;;1.50;;
75191;SDS011;63771;52.580;9.734;2023-04-03T07:20:32;4.10;;;1.77;;
75191;SDS011;63771;52.580;9.734;2023-04-03T07:22:59;1.50;;;1.40;;
75191;SDS011;63771;52.580;9.734;2023-04-03T07:25:26;4.82;;;1.35;;
75191;SDS011;63771;52.580;9.734;2023-04-03T07:27:52;3.92;;;1.67;;
75191;SDS011;63771;52.580;9.734;2023-04-03T07:30:19;4.20;;;1.38;;
75191;SDS011;63771;52.580;9.734;2023-04-03T07:32:44;1.55;;;1.15;;
75191;SDS011;63771;52.580;9.734;2023-04-03T07:35:10;1.57;;;1.47;;
75191;SDS011;63771;52.580;9.734;2023-04-03T07:37:35;4.57;;;1.58;;
75191;SDS011;63771;52.580;9.734;2023-04-03T07:40:01;4.20;;;1.63;;
75191;SDS011;63771;52.580;9.734;2023-04-03T07:42:28;3.13;;;1.50;;
75191;SDS011;63771;52.580;9.734;2023-04-03T07:44:53;3.50;;;1.30;;
75191;SDS011;63771;52.580;9.734;2023-04-03T07:47:19;6.20;;;1.40;;
75191;SDS011;63771;52.580;9.734;2023-04-03T07:49:45;3.88;;;1.83;;
75191;SDS011;63771;52.580;9.734;2023-04-03T07:52:11;1.42;;;1.38;;
75191;SDS011;63771;52.580;9.734;2023-04-03T07:54:36;7.88;;;2.22;;
75191;SDS011;63771;52.580;9.734;2023-04-03T07:57:02;1.30;;;1.20;;
75191;SDS011;63771;52.580;9.734;2023-04-03T07:59:27;7.35;;;1.50;;
75191;SDS011;63771;52.580;9.734;2023-04-03T08:01:53;2.00;;;1.00;;
75191;SDS011;63771;52.580;9.734;2023-04-03T08:04:18;3.37;;;1.40;;
75191;SDS011;63771;52.580;9.734;2023-04-03T08:06:43;1.93;;;0.93;;
75191;SDS011;63771;52.580;9.734;2023-04-03T08:09:09;3.55;;;1.30;;
75191;SDS011;63771;52.580;9.734;2023-04-03T08:11:34;2.50;;;0.73;;
75191;SDS011;63771;52.580;9.734;2023-04-03T08:14:01;4.35;;;1.10;;
75191;SDS011;63771;52.580;9.734;2023-04-03T08:16:27;1.55;;;0.70;;
75191;SDS011;63771;52.580;9.734;2023-04-03T08:18:52;1.73;;;1.63;;
75191;SDS011;63771;52.580;9.734;2023-04-03T08:21:19;2.10;;;1.25;;
75191;SDS011;63771;52.580;9.734;2023-04-03T08:23:47;2.05;;;1.80;;
75191;SDS011;63771;52.580;9.734;2023-04-03T08:26:15;2.95;;;1.30;;
75191;SDS011;63771;52.580;9.734;2023-04-03T08:28:42;1.80;;;1.35;;
75191;SDS011;63771;52.580;9.734;2023-04-03T08:31:09;5.35;;;1.35;;
75191;SDS011;63771;52.580;9.734;2023-04-03T08:33:37;3.55;;;1.00;;
75191;SDS011;63771;52.580;9.734;2023-04-03T08:36:04;2.83;;;1.00;;
75191;SDS011;63771;52.580;9.734;2023-04-03T08:38:30;2.53;;;1.00;;
75191;SDS011;63771;52.580;9.734;2023-04-03T08:41:31;1.67;;;1.27;;
75191;SDS011;63771;52.580;9.734;2023-04-03T08:49:35;0.80;;;0.80;;
75191;SDS011;63771;52.580;9.734;2023-04-03T08:52:09;0.80;;;0.80;;
75191;SDS011;63771;52.580;9.734;2023-04-03T08:54:41;1.90;;;1.35;;
75191;SDS011;63771;52.580;9.734;2023-04-03T08:57:15;1.77;;;0.95;;
75191;SDS011;63771;52.580;9.734;2023-04-03T08:59:42;1.88;;;0.90;;
75191;SDS011;63771;52.580;9.734;2023-04-03T09:02:50;1.85;;;1.27;;
75191;SDS011;63771;52.580;9.734;2023-04-03T09:05:01;0.82;;;0.80;;
75191;SDS011;63771;52.580;9.734;2023-04-03T09:07:36;2.10;;;1.05;;
75191;SDS011;63771;52.580;9.734;2023-04-03T09:10:08;1.77;;;1.15;;
75191;SDS011;63771;52.580;9.734;2023-04-03T09:12:38;1.80;;;1.02;;
75191;SDS011;63771;52.580;9.734;2023-04-03T09:15:17;0.82;;;0.73;;
75191;SDS011;63771;52.580;9.734;2023-04-03T09:26:06;0.90;;;0.90;;
75191;SDS011;63771;52.580;9.734;2023-04-03T09:28:41;5.18;;;1.35;;
75191;SDS011;63771;52.580;9.734;2023-04-03T09:31:16;2.80;;;0.93;;
75191;SDS011;63771;52.580;9.734;2023-04-03T09:33:45;1.75;;;1.05;;
75191;SDS011;63771;52.580;9.734;2023-04-03T09:36:12;1.17;;;0.93;;
75191;SDS011;63771;52.580;9.734;2023-04-03T09:38:37;1.17;;;0.90;;
75191;SDS011;63771;52.580;9.734;2023-04-03T09:41:07;1.27;;;1.27;;
75191;SDS011;63771;52.580;9.734;2023-04-03T09:43:40;1.75;;;1.50;;
75191;SDS011;63771;52.580;9.734;2023-04-03T09:46:25;1.40;;;0.90;;
75191;SDS011;63771;52.580;9.734;2023-04-03T09:48:58;1.80;;;0.88;;
75191;SDS011;63771;52.580;9.734;2023-04-03T09:51:26;2.80;;;1.10;;
75191;SDS011;63771;52.580;9.734;2023-04-03T09:53:52;2.03;;;1.27;;
75191;SDS011;63771;52.580;9.734;2023-04-03T09:58:47;2.83;;;1.02;;
75191;SDS011;63771;52.580;9.734;2023-04-03T10:04:11;0.77;;;0.77;;
75191;SDS011;63771;52.580;9.734;2023-04-03T10:06:43;1.00;;;0.88;;
75191;SDS011;63771;52.580;9.734;2023-04-03T10:09:17;3.63;;;1.10;;
75191;SDS011;63771;52.580;9.734;2023-04-03T10:11:59;1.00;;;0.90;;
75191;SDS011;63771;52.580;9.734;2023-04-03T10:14:30;4.28;;;1.25;;
75191;SDS011;63771;52.580;9.734;2023-04-03T10:17:22;2.83;;;0.75;;
75191;SDS011;63771;52.580;9.734;2023-04-03T10:22:56;1.90;;;1.00;;
75191;SDS011;63771;52.580;9.734;2023-04-03T10:25:43;1.25;;;1.13;;
75191;SDS011;63771;52.580;9.734;2023-04-03T10:28:21;0.80;;;0.80;;
75191;SDS011;63771;52.580;9.734;2023-04-03T10:41:32;1.83;;;0.70;;
75191;SDS011;63771;52.580;9.734;2023-04-03T10:50:21;0.68;;;0.68;;
75191;SDS011;63771;52.580;9.734;2023-04-03T10:52:55;3.17;;;0.73;;
75191;SDS011;63771;52.580;9.734;2023-04-03T11:03:57;0.80;;;0.80;;
75191;SDS011;63771;52.580;9.734;2023-04-03T11:06:25;0.88;;;0.82;;
75191;SDS011;63771;52.580;9.734;2023-04-03T11:08:57;2.30;;;1.10;;
75191;SDS011;63771;52.580;9.734;2023-04-03T11:11:31;0.85;;;0.80;;
75191;SDS011;63771;52.580;9.734;2023-04-03T11:14:13;1.20;;;0.90;;
75191;SDS011;63771;52.580;9.734;2023-04-03T11:17:04;2.85;;;0.80;;
75191;SDS011;63771;52.580;9.734;2023-04-03T11:19:41;0.95;;;0.90;;
75191;SDS011;63771;52.580;9.734;2023-04-03T11:24:34;0.63;;;0.63;;
75191;SDS011;63771;52.580;9.734;2023-04-03T11:27:05;0.82;;;0.77;;
75191;SDS011;63771;52.580;9.734;2023-04-03T11:29:36;1.30;;;1.10;;
75191;SDS011;63771;52.580;9.734;2023-04-03T11:32:08;2.42;;;1.20;;
75191;SDS011;63771;52.580;9.734;2023-04-03T11:34:47;0.90;;;0.90;;
75191;SDS011;63771;52.580;9.734;2023-04-03T11:37:27;2.45;;;1.50;;
75191;SDS011;63771;52.580;9.734;2023-04-03T11:39:56;2.55;;;1.40;;
75191;SDS011;63771;52.580;9.734;2023-04-03T11:47:52;1.52;;;1.00;;
75191;SDS011;63771;52.580;9.734;2023-04-03T11:50:38;1.20;;;1.10;;
75191;SDS011;63771;52.580;9.734;2023-04-03T12:08:29;1.17;;;1.00;;
75191;SDS011;63771;52.580;9.734;2023-04-03T12:13:35;1.48;;;0.98;;
75191;SDS011;63771;52.580;9.734;2023-04-03T12:16:03;1.42;;;1.00;;
75191;SDS011;63771;52.580;9.734;2023-04-03T12:21:14;2.70;;;1.23;;
75191;SDS011;63771;52.580;9.734;2023-04-03T12:26:50;1.23;;;0.70;;
75191;SDS011;63771;52.580;9.734;2023-04-03T12:37:43;2.30;;;0.90;;
75191;SDS011;63771;52.580;9.734;2023-04-03T12:40:35;1.33;;;1.25;;
75191;SDS011;63771;52.580;9.734;2023-04-03T12:48:34;2.20;;;1.50;;
75191;SDS011;63771;52.580;9.734;2023-04-03T12:51:04;3.17;;;1.50;;
75191;SDS011;63771;52.580;9.734;2023-04-03T12:53:32;1.85;;;1.05;;
75191;SDS011;63771;52.580;9.734;2023-04-03T12:56:19;1.15;;;1.13;;
75191;SDS011;63771;52.580;9.734;2023-04-03T12:58:53;0.90;;;0.90;;
75191;SDS011;63771;52.580;9.734;2023-04-03T13:01:21;0.98;;;0.98;;
75191;SDS011;63771;52.580;9.734;2023-04-03T13:03:49;0.90;;;0.90;;
75191;SDS011;63771;52.580;9.734;2023-04-03T13:06:18;1.55;;;0.93;;
75191;SDS011;63771;52.580;9.734;2023-04-03T13:08:50;0.73;;;0.63;;
75191;SDS011;63771;52.580;9.734;2023-04-03T13:13:55;2.10;;;0.98;;
75191;SDS011;63771;52.580;9.734;2023-04-03T13:16:24;2.92;;;0.73;;
75191;SDS011;63771;52.580;9.734;2023-04-03T13:18:51;1.30;;;0.55;;
75191;SDS011;63771;52.580;9.734;2023-04-03T13:21:36;3.33;;;1.02;;
75191;SDS011;63771;52.580;9.734;2023-04-03T13:24:01;2.95;;;0.85;;
75191;SDS011;63771;52.580;9.734;2023-04-03T13:26:29;1.20;;;0.90;;
75191;SDS011;63771;52.580;9.734;2023-04-03T13:29:02;1.15;;;0.80;;
75191;SDS011;63771;52.580;9.734;2023-04-03T13:31:30;1.33;;;1.23;;
75191;SDS011;63771;52.580;9.734;2023-04-03T13:34:12;1.55;;;1.15;;
75191;SDS011;63771;52.580;9.734;2023-04-03T13:36:45;1.58;;;1.10;;
75191;SDS011;63771;52.580;9.734;2023-04-03T13:39:23;1.08;;;1.08;;
75191;SDS011;63771;52.580;9.734;2023-04-03T13:41:57;1.02;;;1.00;;
75191;SDS011;63771;52.580;9.734;2023-04-03T13:44:35;1.92;;;0.70;;
75191;SDS011;63771;52.580;9.734;2023-04-03T13:49:37;2.65;;;0.85;;
75191;SDS011;63771;52.580;9.734;2023-04-03T13:54:52;2.05;;;0.65;;
75191;SDS011;63771;52.580;9.734;2023-04-03T13:57:21;1.85;;;1.00;;
75191;SDS011;63771;52.580;9.734;2023-04-03T13:59:46;2.65;;;0.95;;
75191;SDS011;63771;52.580;9.734;2023-04-03T14:02:16;1.57;;;1.10;;
75191;SDS011;63771;52.580;9.734;2023-04-03T14:04:56;1.63;;;1.10;;
75191;SDS011;63771;52.580;9.734;2023-04-03T14:07:26;2.33;;;1.75;;
75191;SDS011;63771;52.580;9.734;2023-04-03T14:09:53;1.42;;;0.88;;
75191;SDS011;63771;52.580;9.734;2023-04-03T14:12:26;0.80;;;0.80;;
75191;SDS011;63771;52.580;9.734;2023-04-03T14:15:03;0.85;;;0.85;;
75191;SDS011;63771;52.580;9.734;2023-04-03T14:17:30;1.98;;;0.70;;
75191;SDS011;63771;52.580;9.734;2023-04-03T14:19:57;1.20;;;0.70;;
75191;SDS011;63771;52.580;9.734;2023-04-03T14:22:27;1.35;;;0.52;;
75191;SDS011;63771;52.580;9.734;2023-04-03T14:24:55;3.72;;;1.58;;
75191;SDS011;63771;52.580;9.734;2023-04-03T14:29:54;0.60;;;0.60;;
75191;SDS011;63771;52.580;9.734;2023-04-03T14:32:21;2.00;;;1.30;;
75191;SDS011;63771;52.580;9.734;2023-04-03T14:34:48;1.10;;;0.60;;
75191;SDS011;63771;52.580;9.734;2023-04-03T14:37:16;2.63;;;1.23;;
75191;SDS011;63771;52.580;9.734;2023-04-03T14:39:44;2.58;;;1.10;;
75191;SDS011;63771;52.580;9.734;2023-04-03T14:42:11;2.60;;;0.93;;
75191;SDS011;63771;52.580;9.734;2023-04-03T14:44:42;1.15;;;1.05;;
75191;SDS011;63771;52.580;9.734;2023-04-03T14:47:11;1.45;;;1.35;;
75191;SDS011;63771;52.580;9.734;2023-04-03T14:49:39;0.75;;;0.68;;
75191;SDS011;63771;52.580;9.734;2023-04-03T14:52:04;1.35;;;0.90;;
75191;SDS011;63771;52.580;9.734;2023-04-03T14:54:30;1.75;;;1.08;;
75191;SDS011;63771;52.580;9.734;2023-04-03T14:56:57;1.60;;;1.00;;
75191;SDS011;63771;52.580;9.734;2023-04-03T14:59:24;1.27;;;1.13;;
75191;SDS011;63771;52.580;9.734;2023-04-03T15:01:50;1.75;;;0.90;;
75191;SDS011;63771;52.580;9.734;2023-04-03T15:04:17;2.03;;;0.90;;
75191;SDS011;63771;52.580;9.734;2023-04-03T15:06:44;2.05;;;1.35;;
75191;SDS011;63771;52.580;9.734;2023-04-03T15:09:24;2.00;;;1.05;;
75191;SDS011;63771;52.580;9.734;2023-04-03T15:11:51;1.15;;;1.15;;
75191;SDS011;63771;52.580;9.734;2023-04-03T15:14:18;1.63;;;1.52;;
75191;SDS011;63771;52.580;9.734;2023-04-03T15:16:43;1.63;;;1.27;;
75191;SDS011;63771;52.580;9.734;2023-04-03T15:19:11;4.50;;;1.40;;
75191;SDS011;63771;52.580;9.734;2023-04-03T15:21:37;1.63;;;1.42;;
75191;SDS011;63771;52.580;9.734;2023-04-03T15:24:03;1.52;;;1.20;;
75191;SDS011;63771;52.580;9.734;2023-04-03T15:26:29;3.92;;;1.20;;
75191;SDS011;63771;52.580;9.734;2023-04-03T15:28:55;1.55;;;1.20;;
75191;SDS011;63771;52.580;9.734;2023-04-03T15:31:21;1.23;;;1.13;;
75191;SDS011;63771;52.580;9.734;2023-04-03T15:33:46;1.00;;;1.00;;
75191;SDS011;63771;52.580;9.734;2023-04-03T15:36:12;2.93;;;1.53;;
75191;SDS011;63771;52.580;9.734;2023-04-03T15:38:37;3.50;;;1.37;;
75191;SDS011;63771;52.580;9.734;2023-04-03T15:41:03;2.00;;;1.17;;
75191;SDS011;63771;52.580;9.734;2023-04-03T15:43:30;1.63;;;1.13;;
75191;SDS011;63771;52.580;9.734;2023-04-03T15:45:56;1.15;;;1.05;;
75191;SDS011;63771;52.580;9.734;2023-04-03T15:48:24;1.52;;;1.23;;
75191;SDS011;63771;52.580;9.734;2023-04-03T15:50:50;0.98;;;0.98;;
75191;SDS011;63771;52.580;9.734;2023-04-03T15:53:15;1.80;;;1.10;;
75191;SDS011;63771;52.580;9.734;2023-04-03T15:55:41;2.63;;;1.20;;
75191;SDS011;63771;52.580;9.734;2023-04-03T15:58:06;1.27;;;1.02;;
75191;SDS011;63771;52.580;9.734;2023-04-03T16:00:32;0.80;;;0.80;;
75191;SDS011;63771;52.580;9.734;2023-04-03T16:03:00;1.45;;;0.95;;
75191;SDS011;63771;52.580;9.734;2023-04-03T16:05:29;1.67;;;1.10;;
75191;SDS011;63771;52.580;9.734;2023-04-03T16:07:54;1.77;;;1.08;;
75191;SDS011;63771;52.580;9.734;2023-04-03T16:10:20;4.00;;;1.20;;
75191;SDS011;63771;52.580;9.734;2023-04-03T16:12:46;1.50;;;1.40;;
75191;SDS011;63771;52.580;9.734;2023-04-03T16:15:11;1.77;;;1.30;;
75191;SDS011;63771;52.580;9.734;2023-04-03T16:17:37;2.90;;;1.30;;
75191;SDS011;63771;52.580;9.734;2023-04-03T16:20:04;1.15;;;1.15;;
75191;SDS011;63771;52.580;9.734;2023-04-03T16:22:31;1.67;;;1.15;;
75191;SDS011;63771;52.580;9.734;2023-04-03T16:24:56;2.47;;;1.35;;
75191;SDS011;63771;52.580;9.734;2023-04-03T16:27:22;2.03;;;1.40;;
75191;SDS011;63771;52.580;9.734;2023-04-03T16:29:52;1.35;;;1.30;;
75191;SDS011;63771;52.580;9.734;2023-04-03T16:32:17;1.10;;;1.10;;
75191;SDS011;63771;52.580;9.734;2023-04-03T16:34:43;1.63;;;1.40;;
75191;SDS011;63771;52.580;9.734;2023-04-03T16:37:08;3.53;;;1.77;;
75191;SDS011;63771;52.580;9.734;2023-04-03T16:39:34;1.20;;;1.10;;